createdAt,value
2018-09-01T00:00:29.762Z,2.60
2018-09-01T00:02:58.175Z,2.87
2018-09-01T00:05:26.635Z,3.97
2018-09-01T00:07:55.067Z,2.57
2018-09-01T00:10:23.817Z,2.53
2018-09-01T00:12:52.270Z,2.70
2018-09-01T00:16:45.527Z,2.80
2018-09-01T00:19:13.926Z,3.10
2018-09-01T00:21:42.350Z,2.40
2018-09-01T00:24:11.750Z,2.77
2018-09-01T00:26:42.039Z,2.30
2018-09-01T00:29:10.526Z,3.00
2018-09-01T00:31:43.705Z,3.10
2018-09-01T00:34:23.181Z,2.70
2018-09-01T00:36:52.989Z,3.33
2018-09-01T00:39:21.399Z,2.73
2018-09-01T00:41:51.586Z,3.27
2018-09-01T00:44:24.466Z,2.80
2018-09-01T00:46:53.212Z,3.17
2018-09-01T00:49:22.107Z,2.70
2018-09-01T00:51:50.660Z,2.90
2018-09-01T00:54:19.151Z,3.90
2018-09-01T00:56:47.641Z,3.63
2018-09-01T00:59:17.396Z,3.60
2018-09-01T01:01:47.349Z,3.97
2018-09-01T01:04:15.962Z,3.53
2018-09-01T01:06:44.431Z,3.47
2018-09-01T01:09:12.906Z,3.60
2018-09-01T01:11:41.307Z,3.40
2018-09-01T01:14:09.723Z,3.60
2018-09-01T01:16:38.123Z,3.83
2018-09-01T01:19:06.552Z,3.50
2018-09-01T01:21:35.026Z,3.63
2018-09-01T01:24:03.452Z,4.07
2018-09-01T01:26:31.842Z,3.93
2018-09-01T01:29:00.349Z,4.10
2018-09-01T01:31:28.767Z,3.47
2018-09-01T01:33:57.305Z,4.00
2018-09-01T01:36:25.717Z,3.93
2018-09-01T01:38:54.198Z,3.77
2018-09-01T01:41:22.634Z,3.93
2018-09-01T01:43:51.047Z,3.73
2018-09-01T01:46:19.488Z,3.40
2018-09-01T01:48:47.911Z,3.83
2018-09-01T01:51:16.319Z,3.87
2018-09-01T01:53:44.800Z,4.27
2018-09-01T01:59:44.124Z,3.37
2018-09-01T02:02:12.515Z,4.47
2018-09-01T02:04:41.090Z,3.97
2018-09-01T02:07:09.491Z,3.97
2018-09-01T02:09:37.946Z,4.70
2018-09-01T02:12:06.409Z,4.27
2018-09-01T02:14:34.847Z,3.63
2018-09-01T02:17:04.251Z,4.57
2018-09-01T02:19:32.703Z,4.63
2018-09-01T02:22:01.171Z,4.37
2018-09-01T02:24:29.635Z,4.07
2018-09-01T02:26:58.028Z,4.50
2018-09-01T02:29:26.458Z,4.57
2018-09-01T02:31:54.918Z,4.37
2018-09-01T02:34:23.365Z,4.70
2018-09-01T02:36:51.918Z,5.43
2018-09-01T02:39:20.350Z,5.07
2018-09-01T02:41:48.825Z,4.87
2018-09-01T02:44:17.258Z,4.90
2018-09-01T02:46:45.727Z,4.87
2018-09-01T02:49:14.137Z,5.43
2018-09-01T02:51:42.519Z,4.30
2018-09-01T02:54:10.944Z,4.30
2018-09-01T02:56:39.374Z,4.70
2018-09-01T02:59:07.790Z,4.93
2018-09-01T03:01:37.783Z,4.90
2018-09-01T03:04:07.713Z,5.20
2018-09-01T03:06:49.635Z,5.10
2018-09-01T03:09:18.159Z,5.47
2018-09-01T03:11:47.406Z,5.67
2018-09-01T03:14:15.886Z,5.67
2018-09-01T03:16:44.336Z,6.03
2018-09-01T03:19:12.805Z,5.93
2018-09-01T03:21:41.430Z,6.67
2018-09-01T03:24:09.842Z,6.70
2018-09-01T03:26:38.236Z,6.07
2018-09-01T03:29:06.667Z,6.40
2018-09-01T03:31:35.267Z,6.00
2018-09-01T03:34:04.448Z,6.23
2018-09-01T03:36:33.335Z,7.47
2018-09-01T03:39:02.328Z,6.40
2018-09-01T03:41:30.938Z,6.67
2018-09-01T03:43:59.361Z,6.60
2018-09-01T03:46:27.755Z,7.03
2018-09-01T03:48:58.237Z,6.97
2018-09-01T03:51:26.911Z,7.60
2018-09-01T03:53:55.703Z,6.83
2018-09-01T03:56:24.275Z,6.83
2018-09-01T03:58:52.820Z,6.87
2018-09-01T04:01:21.202Z,7.03
2018-09-01T04:03:49.707Z,6.43
2018-09-01T04:06:18.150Z,7.93
2018-09-01T04:08:46.994Z,7.03
2018-09-01T04:11:15.410Z,8.07
2018-09-01T04:13:43.840Z,7.07
2018-09-01T04:16:12.238Z,7.27
2018-09-01T04:18:40.663Z,6.83
2018-09-01T04:21:09.099Z,7.73
2018-09-01T04:23:37.515Z,7.67
2018-09-01T04:26:05.960Z,7.63
2018-09-01T04:28:34.394Z,6.73
2018-09-01T04:31:02.858Z,6.60
2018-09-01T04:33:31.439Z,6.43
2018-09-01T04:35:59.839Z,6.23
2018-09-01T04:38:28.232Z,6.57
2018-09-01T04:40:56.711Z,6.93
2018-09-01T04:43:25.179Z,7.40
2018-09-01T04:45:53.591Z,7.27
2018-09-01T04:48:21.994Z,7.63
2018-09-01T04:50:50.398Z,6.67
2018-09-01T04:53:19.186Z,7.37
2018-09-01T04:55:47.626Z,8.47
2018-09-01T04:58:16.035Z,8.20
2018-09-01T05:00:44.444Z,7.83
2018-09-01T05:03:13.039Z,7.17
2018-09-01T05:05:41.472Z,7.10
2018-09-01T05:08:09.862Z,7.10
2018-09-01T05:10:38.352Z,6.63
2018-09-01T05:13:07.188Z,6.70
2018-09-01T05:15:35.738Z,6.83
2018-09-01T05:18:04.129Z,7.43
2018-09-01T05:20:32.654Z,6.90
2018-09-01T05:23:01.106Z,7.60
2018-09-01T05:25:29.574Z,8.50
2018-09-01T05:27:57.979Z,7.20
2018-09-01T05:30:26.459Z,7.43
2018-09-01T05:32:54.855Z,8.43
2018-09-01T05:35:23.614Z,7.87
2018-09-01T05:37:52.406Z,8.00
2018-09-01T05:40:20.882Z,7.83
2018-09-01T05:42:49.302Z,7.70
2018-09-01T05:45:17.744Z,8.10
2018-09-01T05:47:46.198Z,7.90
2018-09-01T05:50:14.620Z,7.63
2018-09-01T05:52:43.025Z,7.97
2018-09-01T05:55:11.473Z,7.57
2018-09-01T05:57:39.908Z,7.80
2018-09-01T06:00:08.994Z,7.60
2018-09-01T06:02:37.434Z,7.43
2018-09-01T06:05:07.070Z,6.70
2018-09-01T06:07:35.836Z,6.80
2018-09-01T06:10:04.302Z,6.70
2018-09-01T06:12:32.729Z,6.93
2018-09-01T06:15:01.247Z,6.67
2018-09-01T06:17:29.680Z,6.17
2018-09-01T06:19:58.925Z,5.67
2018-09-01T06:22:27.331Z,6.00
2018-09-01T06:24:55.805Z,6.20
2018-09-01T06:27:27.569Z,6.97
2018-09-01T06:29:56.078Z,6.23
2018-09-01T06:32:24.558Z,5.60
2018-09-01T06:34:53.011Z,6.17
2018-09-01T06:37:21.416Z,6.10
2018-09-01T06:39:50.262Z,6.23
2018-09-01T06:42:18.737Z,5.87
2018-09-01T06:44:47.267Z,6.43
2018-09-01T06:47:15.686Z,5.80
2018-09-01T06:49:44.141Z,5.77
2018-09-01T06:52:12.549Z,5.87
2018-09-01T06:54:40.946Z,5.50
2018-09-01T06:57:09.366Z,5.70
2018-09-01T06:59:37.742Z,5.17
2018-09-01T07:02:07.067Z,5.83
2018-09-01T07:04:35.503Z,5.60
2018-09-01T07:07:03.949Z,5.67
2018-09-01T07:09:32.442Z,5.37
2018-09-01T07:12:00.886Z,4.93
2018-09-01T07:14:29.343Z,4.97
2018-09-01T07:16:57.755Z,5.40
2018-09-01T07:19:26.150Z,5.10
2018-09-01T07:21:54.569Z,5.67
2018-09-01T07:24:23.040Z,5.00
2018-09-01T07:26:51.457Z,5.03
2018-09-01T07:29:19.862Z,5.53
2018-09-01T07:31:48.317Z,4.60
2018-09-01T07:34:16.710Z,4.57
2018-09-01T07:36:45.191Z,4.97
2018-09-01T07:39:13.670Z,4.83
2018-09-01T07:41:42.083Z,4.47
2018-09-01T07:44:10.494Z,4.20
2018-09-01T07:46:39.051Z,3.83
2018-09-01T07:49:07.738Z,4.17
2018-09-01T07:51:36.223Z,4.60
2018-09-01T07:54:05.057Z,4.57
2018-09-01T07:56:33.466Z,4.37
2018-09-01T07:59:02.341Z,4.17
2018-09-01T08:01:30.771Z,3.57
2018-09-01T08:03:59.212Z,3.97
2018-09-01T08:06:28.018Z,3.70
2018-09-01T08:08:56.463Z,3.50
2018-09-01T08:11:25.241Z,3.93
2018-09-01T08:13:53.697Z,3.40
2018-09-01T08:16:22.793Z,2.77
2018-09-01T08:18:51.586Z,2.90
2018-09-01T08:21:20.148Z,2.60
2018-09-01T08:23:49.398Z,2.60
2018-09-01T08:26:17.846Z,3.00
2018-09-01T08:28:46.284Z,2.80
2018-09-01T08:31:14.941Z,3.37
2018-09-01T08:33:43.523Z,2.40
2018-09-01T08:36:12.071Z,2.23
2018-09-01T08:38:40.778Z,2.90
2018-09-01T08:41:09.431Z,2.30
2018-09-01T08:43:44.530Z,2.30
2018-09-01T08:46:12.946Z,1.93
2018-09-01T08:48:42.467Z,2.37
2018-09-01T08:51:10.872Z,2.20
2018-09-01T08:53:39.310Z,1.97
2018-09-01T08:56:07.714Z,5.00
2018-09-01T08:58:36.123Z,12.70
2018-09-01T09:01:04.610Z,2.90
2018-09-01T09:03:33.123Z,3.00
2018-09-01T09:06:01.534Z,2.60
2018-09-01T09:08:29.994Z,2.40
2018-09-01T09:10:58.411Z,2.70
2018-09-01T09:13:26.837Z,1.77
2018-09-01T09:15:55.258Z,6.00
2018-09-01T09:18:23.731Z,4.33
2018-09-01T09:20:52.194Z,7.33
2018-09-01T09:23:20.826Z,18.47
2018-09-01T09:25:49.277Z,22.20
2018-09-01T09:28:18.235Z,5.60
2018-09-01T09:30:47.276Z,2.00
2018-09-01T09:33:15.740Z,3.00
2018-09-01T09:35:44.264Z,3.83
2018-09-01T09:38:12.683Z,2.30
2018-09-01T09:40:41.606Z,2.70
2018-09-01T09:43:10.023Z,2.97
2018-09-01T09:45:38.463Z,2.87
2018-09-01T09:48:07.191Z,2.70
2018-09-01T09:50:35.582Z,3.07
2018-09-01T09:53:04.081Z,1.93
2018-09-01T09:55:33.595Z,2.80
2018-09-01T09:58:02.414Z,3.20
2018-09-01T10:00:36.175Z,2.40
2018-09-01T10:03:05.223Z,1.90
2018-09-01T10:05:33.664Z,2.07
2018-09-01T10:08:05.317Z,2.00
2018-09-01T10:10:33.894Z,3.27
2018-09-01T10:13:02.354Z,2.63
2018-09-01T10:15:30.837Z,2.43
2018-09-01T10:17:59.338Z,3.70
2018-09-01T10:20:27.871Z,3.77
2018-09-01T10:22:56.479Z,2.90
2018-09-01T10:25:31.520Z,2.67
2018-09-01T10:28:15.729Z,1.80
2018-09-01T10:30:56.907Z,3.00
2018-09-01T10:33:35.821Z,2.40
2018-09-01T10:36:15.544Z,2.60
2018-09-01T10:38:53.353Z,2.10
2018-09-01T10:41:21.962Z,1.50
2018-09-01T10:43:50.528Z,2.00
2018-09-01T10:46:19.440Z,2.00
2018-09-01T10:48:47.963Z,1.93
2018-09-01T10:51:16.657Z,1.67
2018-09-01T10:53:45.142Z,2.20
2018-09-01T10:56:13.781Z,2.47
2018-09-01T10:58:42.202Z,2.00
2018-09-01T11:01:10.753Z,2.40
2018-09-01T11:03:39.168Z,2.00
2018-09-01T11:06:07.967Z,1.80
2018-09-01T11:08:36.414Z,1.97
2018-09-01T11:11:05.588Z,1.80
2018-09-01T11:13:34.174Z,2.40
2018-09-01T11:16:02.602Z,2.10
2018-09-01T11:18:31.039Z,1.80
2018-09-01T11:20:59.650Z,2.13
2018-09-01T11:23:28.254Z,1.93
2018-09-01T11:25:56.716Z,1.93
2018-09-01T11:28:25.136Z,2.10
2018-09-01T11:30:53.639Z,2.37
2018-09-01T11:33:22.983Z,2.60
2018-09-01T11:35:51.996Z,2.37
2018-09-01T11:38:20.783Z,1.90
2018-09-01T11:40:49.239Z,1.90
2018-09-01T11:43:17.776Z,2.10
2018-09-01T11:45:46.474Z,2.37
2018-09-01T11:48:14.866Z,2.23
2018-09-01T11:50:43.269Z,2.10
2018-09-01T11:53:17.251Z,2.00
2018-09-01T11:55:45.799Z,1.87
2018-09-01T11:58:14.256Z,2.10
2018-09-01T12:00:42.710Z,2.27
2018-09-01T12:03:11.154Z,2.10
2018-09-01T12:05:39.643Z,2.37
2018-09-01T12:08:08.095Z,2.20
2018-09-01T12:10:36.513Z,2.03
2018-09-01T12:13:05.034Z,2.37
2018-09-01T12:15:33.567Z,2.30
2018-09-01T12:18:02.008Z,1.90
2018-09-01T12:20:30.721Z,2.50
2018-09-01T12:22:59.210Z,2.60
2018-09-01T12:25:27.930Z,2.37
2018-09-01T12:27:56.348Z,2.53
2018-09-01T12:30:25.222Z,2.30
2018-09-01T12:32:53.718Z,2.67
2018-09-01T12:35:22.693Z,2.20
2018-09-01T12:37:51.342Z,2.73
2018-09-01T12:40:20.157Z,2.47
2018-09-01T12:42:48.886Z,2.70
2018-09-01T12:45:17.400Z,2.10
2018-09-01T12:47:46.386Z,2.10
2018-09-01T12:50:14.883Z,2.57
2018-09-01T12:52:43.339Z,2.10
2018-09-01T12:55:11.838Z,2.10
2018-09-01T12:57:40.351Z,2.50
2018-09-01T13:00:08.895Z,2.37
2018-09-01T13:02:37.415Z,2.30
2018-09-01T13:05:06.402Z,2.33
2018-09-01T13:07:35.303Z,2.20
2018-09-01T13:10:03.959Z,2.37
2018-09-01T13:12:32.418Z,6.73
2018-09-01T13:15:00.930Z,4.10
2018-09-01T13:17:29.449Z,2.37
2018-09-01T13:19:57.974Z,2.70
2018-09-01T13:22:26.427Z,2.23
2018-09-01T13:24:54.903Z,3.30
2018-09-01T13:27:23.358Z,2.70
2018-09-01T13:29:51.819Z,2.87
2018-09-01T13:32:20.702Z,4.83
2018-09-01T13:34:49.226Z,4.17
2018-09-01T13:37:17.721Z,2.60
2018-09-01T13:39:46.358Z,2.40
2018-09-01T13:42:16.545Z,2.27
2018-09-01T13:44:45.726Z,2.17
2018-09-01T13:47:14.747Z,2.10
2018-09-01T13:49:43.479Z,2.60
2018-09-01T13:52:13.187Z,2.43
2018-09-01T13:54:44.695Z,2.37
2018-09-01T13:57:13.627Z,2.20
2018-09-01T13:59:42.527Z,2.90
2018-09-01T14:02:11.045Z,2.77
2018-09-01T14:04:39.544Z,2.57
2018-09-01T14:07:08.264Z,2.03
2018-09-01T14:09:36.738Z,2.73
2018-09-01T14:12:05.610Z,2.90
2018-09-01T14:14:34.128Z,2.00
2018-09-01T14:17:03.186Z,2.23
2018-09-01T14:19:31.766Z,2.60
2018-09-01T14:22:00.691Z,2.20
2018-09-01T14:24:29.171Z,2.20
2018-09-01T14:26:58.030Z,2.53
2018-09-01T14:29:26.616Z,2.10
2018-09-01T14:31:55.223Z,2.20
2018-09-01T14:34:23.757Z,2.40
2018-09-01T14:36:52.795Z,2.70
2018-09-01T14:39:21.478Z,2.47
2018-09-01T14:41:51.091Z,2.20
2018-09-01T14:44:19.570Z,2.17
2018-09-01T14:46:48.177Z,2.87
2018-09-01T14:49:16.827Z,3.13
2018-09-01T14:51:45.930Z,3.07
2018-09-01T14:54:14.497Z,2.63
2018-09-01T14:56:44.038Z,2.80
2018-09-01T14:59:13.770Z,2.37
2018-09-01T15:01:42.498Z,2.00
2018-09-01T15:04:10.963Z,2.90
2018-09-01T15:06:41.579Z,2.47
2018-09-01T15:09:10.098Z,2.17
2018-09-01T15:11:38.868Z,2.40
2018-09-01T15:14:07.706Z,2.73
2018-09-01T15:16:36.199Z,2.73
2018-09-01T15:19:04.743Z,2.50
2018-09-01T15:21:33.210Z,2.30
2018-09-01T15:24:01.911Z,2.70
2018-09-01T15:26:30.386Z,4.00
2018-09-01T15:28:58.883Z,3.10
2018-09-01T15:32:29.954Z,4.00
2018-09-01T15:34:58.610Z,3.60
2018-09-01T15:37:29.683Z,2.97
2018-09-01T15:39:58.197Z,3.60
2018-09-01T15:42:26.708Z,3.00
2018-09-01T15:44:55.267Z,3.07
2018-09-01T15:47:23.925Z,2.50
2018-09-01T15:49:52.435Z,2.67
2018-09-01T15:52:20.927Z,2.77
2018-09-01T15:54:49.415Z,2.47
2018-09-01T15:57:17.957Z,2.20
2018-09-01T15:59:46.401Z,2.30
2018-09-01T16:02:14.879Z,2.63
2018-09-01T16:04:43.399Z,2.50
2018-09-01T16:07:11.866Z,2.60
2018-09-01T16:09:40.370Z,2.90
2018-09-01T16:12:08.854Z,3.03
2018-09-01T16:14:37.361Z,2.90
2018-09-01T16:17:06.135Z,3.07
2018-09-01T16:19:36.379Z,2.60
2018-09-01T16:22:05.269Z,2.60
2018-09-01T16:24:33.763Z,2.90
2018-09-01T16:27:02.229Z,2.47
2018-09-01T16:29:30.713Z,2.53
2018-09-01T16:31:59.206Z,2.70
2018-09-01T16:34:28.173Z,2.60
2018-09-01T16:36:56.767Z,2.77
2018-09-01T16:39:25.240Z,2.53
2018-09-01T16:41:53.710Z,2.27
2018-09-01T16:44:22.174Z,3.03
2018-09-01T16:46:50.646Z,2.30
2018-09-01T16:49:19.148Z,2.23
2018-09-01T16:51:47.647Z,2.50
2018-09-01T16:54:16.126Z,2.80
2018-09-01T16:56:44.608Z,2.43
2018-09-01T16:59:13.086Z,2.30
2018-09-01T17:01:41.571Z,2.47
2018-09-01T17:04:10.045Z,3.10
2018-09-01T17:06:38.548Z,2.63
2018-09-01T17:09:08.220Z,4.67
2018-09-01T17:11:36.890Z,3.80
2018-09-01T17:14:05.949Z,4.77
2018-09-01T17:16:34.386Z,5.27
2018-09-01T17:19:02.896Z,4.27
2018-09-01T17:21:31.419Z,4.60
2018-09-01T17:24:00.442Z,3.80
2018-09-01T17:26:34.754Z,3.30
2018-09-01T17:29:03.367Z,3.50
2018-09-01T17:31:33.611Z,3.37
2018-09-01T17:34:04.499Z,2.87
2018-09-01T17:36:34.626Z,2.93
2018-09-01T17:39:04.774Z,3.07
2018-09-01T17:41:39.095Z,3.47
2018-09-01T17:44:07.754Z,2.77
2018-09-01T17:46:39.120Z,3.10
2018-09-01T17:49:08.714Z,2.87
2018-09-01T17:51:38.059Z,2.60
2018-09-01T17:54:09.655Z,3.10
2018-09-01T17:56:39.450Z,3.33
2018-09-01T17:59:09.931Z,2.90
2018-09-01T18:01:43.604Z,3.53
2018-09-01T18:04:12.110Z,4.93
2018-09-01T18:06:40.719Z,3.77
2018-09-01T18:09:10.872Z,4.60
2018-09-01T18:11:43.827Z,5.00
2018-09-01T18:14:13.603Z,4.87
2018-09-01T18:16:45.414Z,4.17
2018-09-01T18:19:15.529Z,4.40
2018-09-01T18:21:46.447Z,4.40
2018-09-01T18:24:19.850Z,4.67
2018-09-01T18:26:51.303Z,4.30
2018-09-01T18:29:21.575Z,4.77
2018-09-01T18:31:50.182Z,4.80
2018-09-01T18:34:18.682Z,3.67
2018-09-01T18:36:47.167Z,3.37
2018-09-01T18:39:15.737Z,4.10
2018-09-01T18:41:44.383Z,4.13
2018-09-01T18:44:12.874Z,3.77
2018-09-01T18:46:41.357Z,3.80
2018-09-01T18:49:09.818Z,3.33
2018-09-01T18:51:38.274Z,3.20
2018-09-01T18:54:07.075Z,3.43
2018-09-01T18:56:35.737Z,4.30
2018-09-01T18:59:04.380Z,3.40
2018-09-01T19:01:32.844Z,2.90
2018-09-01T19:05:03.929Z,2.93
2018-09-01T19:07:32.378Z,3.17
2018-09-01T19:10:00.843Z,3.27
2018-09-01T19:12:29.295Z,3.00
2018-09-01T19:14:57.773Z,2.87
2018-09-01T19:17:26.222Z,2.47
2018-09-01T19:19:54.691Z,2.70
2018-09-01T19:22:23.141Z,3.10
2018-09-01T19:24:51.665Z,3.30
2018-09-01T19:27:20.166Z,2.70
2018-09-01T19:29:48.645Z,3.00
2018-09-01T19:32:17.085Z,3.30
2018-09-01T19:34:45.765Z,3.13
2018-09-01T19:37:14.546Z,3.30
2018-09-01T19:39:43.050Z,3.17
2018-09-01T19:42:11.511Z,3.33
2018-09-01T19:44:39.995Z,3.60
2018-09-01T19:47:08.643Z,3.73
2018-09-01T19:49:37.154Z,3.47
2018-09-01T19:52:05.629Z,3.80
2018-09-01T19:54:34.130Z,3.90
2018-09-01T19:57:02.621Z,4.00
2018-09-01T19:59:31.094Z,4.17
2018-09-01T20:01:59.560Z,4.10
2018-09-01T20:04:28.086Z,4.10
2018-09-01T20:06:56.741Z,4.10
2018-09-01T20:09:25.270Z,3.97
2018-09-01T20:11:53.996Z,3.93
2018-09-01T20:14:22.498Z,3.60
2018-09-01T20:16:52.270Z,3.80
2018-09-01T20:19:20.819Z,3.90
2018-09-01T20:21:49.698Z,3.77
2018-09-01T20:24:18.190Z,4.10
2018-09-01T20:26:47.042Z,3.83
2018-09-01T20:29:15.514Z,3.80
2018-09-01T20:31:44.049Z,4.40
2018-09-01T20:34:19.840Z,3.87
2018-09-01T20:36:48.463Z,3.73
2018-09-01T20:39:16.990Z,3.63
2018-09-01T20:41:45.675Z,3.70
2018-09-01T20:44:14.120Z,4.17
2018-09-01T20:46:42.591Z,3.77
2018-09-01T20:49:14.243Z,4.10
2018-09-01T20:51:42.726Z,3.43
2018-09-01T20:54:11.299Z,4.30
2018-09-01T20:56:39.905Z,4.23
2018-09-01T20:59:08.365Z,3.90
2018-09-01T21:01:36.881Z,3.73
2018-09-01T21:04:05.388Z,4.27
2018-09-01T21:06:34.283Z,4.50
2018-09-01T21:09:02.822Z,4.67
2018-09-01T21:11:31.355Z,4.17
2018-09-01T21:13:59.846Z,4.43
2018-09-01T21:16:28.391Z,4.53
2018-09-01T21:18:57.030Z,4.67
2018-09-01T21:21:25.536Z,4.20
2018-09-01T21:23:53.994Z,4.50
2018-09-01T21:26:22.552Z,4.67
2018-09-01T21:28:51.218Z,3.60
2018-09-01T21:31:19.705Z,4.57
2018-09-01T21:33:48.175Z,4.50
2018-09-01T21:36:16.706Z,4.73
2018-09-01T21:38:45.190Z,4.53
2018-09-01T21:41:13.678Z,5.00
2018-09-01T21:43:43.165Z,4.30
2018-09-01T21:46:11.713Z,4.60
2018-09-01T21:48:40.184Z,4.27
2018-09-01T21:51:08.650Z,4.63
2018-09-01T21:53:37.115Z,4.90
2018-09-01T21:56:06.146Z,4.40
2018-09-01T21:58:34.619Z,3.90
2018-09-01T22:01:08.330Z,4.40
2018-09-01T22:03:41.035Z,4.93
2018-09-01T22:06:09.548Z,3.93
2018-09-01T22:08:38.228Z,4.27
2018-09-01T22:11:06.722Z,4.40
2018-09-01T22:13:35.178Z,4.37
2018-09-01T22:16:03.722Z,4.10
2018-09-01T22:18:32.234Z,4.23
2018-09-01T22:21:00.718Z,4.70
2018-09-01T22:23:29.205Z,4.33
2018-09-01T22:25:57.719Z,4.47
2018-09-01T22:28:26.162Z,4.60
2018-09-01T22:30:54.606Z,4.10
2018-09-01T22:33:23.082Z,3.93
2018-09-01T22:35:51.574Z,4.20
2018-09-01T22:38:20.563Z,3.77
2018-09-01T22:40:49.021Z,3.83
2018-09-01T22:43:17.489Z,3.87
2018-09-01T22:45:45.926Z,3.73
2018-09-01T22:48:14.453Z,4.03
2018-09-01T22:50:42.985Z,3.87
2018-09-01T22:53:11.471Z,4.40
2018-09-01T22:55:39.992Z,3.83
2018-09-01T22:58:08.506Z,4.23
2018-09-01T23:00:36.967Z,4.40
2018-09-01T23:03:05.608Z,3.90
2018-09-01T23:05:34.235Z,3.73
2018-09-01T23:08:02.741Z,3.43
2018-09-01T23:10:31.256Z,3.87
2018-09-01T23:12:59.790Z,4.53
2018-09-01T23:15:28.249Z,5.10
2018-09-01T23:17:56.670Z,4.77
2018-09-01T23:20:25.066Z,4.30
2018-09-01T23:22:53.480Z,4.10
2018-09-01T23:25:21.898Z,4.10
2018-09-01T23:27:50.306Z,4.10
2018-09-01T23:30:18.882Z,5.20
2018-09-01T23:32:47.294Z,4.03
2018-09-01T23:35:15.703Z,3.93
2018-09-01T23:37:44.152Z,3.93
2018-09-01T23:40:12.564Z,4.20
2018-09-01T23:42:41.014Z,4.37
2018-09-01T23:45:09.757Z,3.93
2018-09-01T23:47:38.189Z,4.40
2018-09-01T23:50:07.605Z,4.77
2018-09-01T23:52:36.022Z,4.33
2018-09-01T23:55:04.858Z,4.50
2018-09-01T23:57:33.280Z,3.93
